sensor_id;sensor_type;location;lat;lon;timestamp;P1;durP1;ratioP1;P2;durP2;ratioP2
6113;SDS011;3087;48.392;10.836;2023-03-04T00:01:36;48.00;;;32.90;;
6113;SDS011;3087;48.392;10.836;2023-03-04T00:04:01;49.90;;;33.27;;
6113;SDS011;3087;48.392;10.836;2023-03-04T00:06:27;44.40;;;30.30;;
6113;SDS011;3087;48.392;10.836;2023-03-04T00:08:52;50.93;;;32.73;;
6113;SDS011;3087;48.392;10.836;2023-03-04T00:11:18;49.27;;;31.73;;
6113;SDS011;3087;48.392;10.836;2023-03-04T00:13:44;52.30;;;32.13;;
6113;SDS011;3087;48.392;10.836;2023-03-04T00:16:09;55.17;;;32.60;;
6113;SDS011;3087;48.392;10.836;2023-03-04T00:18:35;47.93;;;33.03;;
6113;SDS011;3087;48.392;10.836;2023-03-04T00:21:00;46.67;;;30.70;;
6113;SDS011;3087;48.392;10.836;2023-03-04T00:23:26;50.30;;;32.70;;
6113;SDS011;3087;48.392;10.836;2023-03-04T00:25:53;49.20;;;32.60;;
6113;SDS011;3087;48.392;10.836;2023-03-04T00:28:18;47.77;;;32.83;;
6113;SDS011;3087;48.392;10.836;2023-03-04T00:30:44;51.60;;;33.37;;
6113;SDS011;3087;48.392;10.836;2023-03-04T00:33:10;50.73;;;33.40;;
6113;SDS011;3087;48.392;10.836;2023-03-04T00:35:35;49.27;;;33.43;;
6113;SDS011;3087;48.392;10.836;2023-03-04T00:38:01;51.03;;;33.07;;
6113;SDS011;3087;48.392;10.836;2023-03-04T00:40:26;47.37;;;30.77;;
6113;SDS011;3087;48.392;10.836;2023-03-04T00:42:52;54.67;;;34.13;;
6113;SDS011;3087;48.392;10.836;2023-03-04T00:45:18;48.23;;;31.57;;
6113;SDS011;3087;48.392;10.836;2023-03-04T00:47:43;52.93;;;34.10;;
6113;SDS011;3087;48.392;10.836;2023-03-04T00:50:09;49.20;;;32.10;;
6113;SDS011;3087;48.392;10.836;2023-03-04T00:52:35;51.20;;;33.03;;
6113;SDS011;3087;48.392;10.836;2023-03-04T00:55:00;56.20;;;34.27;;
6113;SDS011;3087;48.392;10.836;2023-03-04T00:57:26;52.03;;;34.03;;
6113;SDS011;3087;48.392;10.836;2023-03-04T00:59:51;51.17;;;33.00;;
6113;SDS011;3087;48.392;10.836;2023-03-04T01:02:17;51.23;;;33.77;;
6113;SDS011;3087;48.392;10.836;2023-03-04T01:04:43;54.63;;;32.73;;
6113;SDS011;3087;48.392;10.836;2023-03-04T01:07:08;55.17;;;34.93;;
6113;SDS011;3087;48.392;10.836;2023-03-04T01:09:34;55.20;;;35.00;;
6113;SDS011;3087;48.392;10.836;2023-03-04T01:12:00;57.67;;;36.17;;
6113;SDS011;3087;48.392;10.836;2023-03-04T01:14:25;56.60;;;35.80;;
6113;SDS011;3087;48.392;10.836;2023-03-04T01:16:51;53.03;;;33.93;;
6113;SDS011;3087;48.392;10.836;2023-03-04T01:19:17;55.03;;;34.70;;
6113;SDS011;3087;48.392;10.836;2023-03-04T01:21:43;54.00;;;33.87;;
6113;SDS011;3087;48.392;10.836;2023-03-04T01:24:08;50.00;;;31.63;;
6113;SDS011;3087;48.392;10.836;2023-03-04T01:26:34;54.30;;;32.60;;
6113;SDS011;3087;48.392;10.836;2023-03-04T01:29:00;50.00;;;32.23;;
6113;SDS011;3087;48.392;10.836;2023-03-04T01:31:26;49.37;;;32.57;;
6113;SDS011;3087;48.392;10.836;2023-03-04T01:33:51;54.33;;;34.00;;
6113;SDS011;3087;48.392;10.836;2023-03-04T01:36:17;53.30;;;33.37;;
6113;SDS011;3087;48.392;10.836;2023-03-04T01:38:43;48.37;;;31.23;;
6113;SDS011;3087;48.392;10.836;2023-03-04T01:41:09;50.40;;;32.73;;
6113;SDS011;3087;48.392;10.836;2023-03-04T01:43:36;50.73;;;33.10;;
6113;SDS011;3087;48.392;10.836;2023-03-04T01:46:02;48.37;;;31.40;;
6113;SDS011;3087;48.392;10.836;2023-03-04T01:48:37;48.87;;;31.63;;
6113;SDS011;3087;48.392;10.836;2023-03-04T01:51:09;47.80;;;30.47;;
6113;SDS011;3087;48.392;10.836;2023-03-04T01:53:39;52.43;;;32.80;;
6113;SDS011;3087;48.392;10.836;2023-03-04T01:56:15;50.07;;;30.97;;
6113;SDS011;3087;48.392;10.836;2023-03-04T02:01:31;46.27;;;30.97;;
6113;SDS011;3087;48.392;10.836;2023-03-04T02:03:56;46.30;;;30.27;;
6113;SDS011;3087;48.392;10.836;2023-03-04T02:06:22;49.17;;;31.77;;
6113;SDS011;3087;48.392;10.836;2023-03-04T02:08:48;48.23;;;31.13;;
6113;SDS011;3087;48.392;10.836;2023-03-04T02:11:13;46.50;;;32.33;;
6113;SDS011;3087;48.392;10.836;2023-03-04T02:13:39;54.80;;;33.30;;
6113;SDS011;3087;48.392;10.836;2023-03-04T02:16:04;55.30;;;35.60;;
6113;SDS011;3087;48.392;10.836;2023-03-04T02:18:30;52.13;;;31.20;;
6113;SDS011;3087;48.392;10.836;2023-03-04T02:21:01;49.03;;;32.20;;
6113;SDS011;3087;48.392;10.836;2023-03-04T02:26:24;51.43;;;30.27;;
6113;SDS011;3087;48.392;10.836;2023-03-04T02:28:52;52.83;;;32.63;;
6113;SDS011;3087;48.392;10.836;2023-03-04T02:31:24;53.67;;;32.63;;
6113;SDS011;3087;48.392;10.836;2023-03-04T02:33:53;49.50;;;32.40;;
6113;SDS011;3087;48.392;10.836;2023-03-04T02:36:21;50.83;;;32.97;;
6113;SDS011;3087;48.392;10.836;2023-03-04T02:38:48;53.30;;;32.63;;
6113;SDS011;3087;48.392;10.836;2023-03-04T02:41:15;54.13;;;32.23;;
6113;SDS011;3087;48.392;10.836;2023-03-04T02:43:45;58.03;;;32.00;;
6113;SDS011;3087;48.392;10.836;2023-03-04T02:46:12;56.10;;;34.03;;
6113;SDS011;3087;48.392;10.836;2023-03-04T02:48:37;52.10;;;33.30;;
6113;SDS011;3087;48.392;10.836;2023-03-04T02:51:03;55.70;;;32.27;;
6113;SDS011;3087;48.392;10.836;2023-03-04T02:53:29;53.33;;;34.10;;
6113;SDS011;3087;48.392;10.836;2023-03-04T02:55:54;53.33;;;34.73;;
6113;SDS011;3087;48.392;10.836;2023-03-04T02:58:20;54.07;;;34.77;;
6113;SDS011;3087;48.392;10.836;2023-03-04T03:00:46;59.33;;;34.03;;
6113;SDS011;3087;48.392;10.836;2023-03-04T03:03:12;54.33;;;33.60;;
6113;SDS011;3087;48.392;10.836;2023-03-04T03:05:37;56.67;;;32.50;;
6113;SDS011;3087;48.392;10.836;2023-03-04T03:08:04;52.57;;;33.23;;
6113;SDS011;3087;48.392;10.836;2023-03-04T03:10:30;52.33;;;32.77;;
6113;SDS011;3087;48.392;10.836;2023-03-04T03:12:56;52.37;;;33.00;;
6113;SDS011;3087;48.392;10.836;2023-03-04T03:15:22;44.90;;;29.10;;
6113;SDS011;3087;48.392;10.836;2023-03-04T03:17:47;52.23;;;31.83;;
6113;SDS011;3087;48.392;10.836;2023-03-04T03:20:14;48.87;;;32.17;;
6113;SDS011;3087;48.392;10.836;2023-03-04T03:22:40;50.97;;;32.00;;
6113;SDS011;3087;48.392;10.836;2023-03-04T03:25:06;51.57;;;33.17;;
6113;SDS011;3087;48.392;10.836;2023-03-04T03:27:33;49.70;;;33.87;;
6113;SDS011;3087;48.392;10.836;2023-03-04T03:29:59;52.67;;;31.60;;
6113;SDS011;3087;48.392;10.836;2023-03-04T03:32:25;51.03;;;31.67;;
6113;SDS011;3087;48.392;10.836;2023-03-04T03:34:51;52.17;;;30.93;;
6113;SDS011;3087;48.392;10.836;2023-03-04T03:37:16;54.53;;;33.93;;
6113;SDS011;3087;48.392;10.836;2023-03-04T03:39:42;54.50;;;34.20;;
6113;SDS011;3087;48.392;10.836;2023-03-04T03:42:08;52.43;;;34.17;;
6113;SDS011;3087;48.392;10.836;2023-03-04T03:44:33;49.77;;;32.57;;
6113;SDS011;3087;48.392;10.836;2023-03-04T03:46:59;52.07;;;33.27;;
6113;SDS011;3087;48.392;10.836;2023-03-04T03:49:25;49.50;;;33.10;;
6113;SDS011;3087;48.392;10.836;2023-03-04T03:51:50;52.60;;;32.17;;
6113;SDS011;3087;48.392;10.836;2023-03-04T03:54:16;51.20;;;32.13;;
6113;SDS011;3087;48.392;10.836;2023-03-04T03:56:42;52.50;;;33.33;;
6113;SDS011;3087;48.392;10.836;2023-03-04T03:59:07;50.53;;;31.63;;
6113;SDS011;3087;48.392;10.836;2023-03-04T04:01:33;50.33;;;32.60;;
6113;SDS011;3087;48.392;10.836;2023-03-04T04:03:59;55.07;;;33.47;;
6113;SDS011;3087;48.392;10.836;2023-03-04T04:06:25;50.47;;;31.83;;
6113;SDS011;3087;48.392;10.836;2023-03-04T04:08:51;51.70;;;33.90;;
6113;SDS011;3087;48.392;10.836;2023-03-04T04:11:17;56.73;;;34.07;;
6113;SDS011;3087;48.392;10.836;2023-03-04T04:13:43;54.23;;;33.43;;
6113;SDS011;3087;48.392;10.836;2023-03-04T04:16:09;55.97;;;34.47;;
6113;SDS011;3087;48.392;10.836;2023-03-04T04:18:35;52.83;;;31.33;;
6113;SDS011;3087;48.392;10.836;2023-03-04T04:21:01;50.40;;;31.30;;
6113;SDS011;3087;48.392;10.836;2023-03-04T04:23:28;53.23;;;34.00;;
6113;SDS011;3087;48.392;10.836;2023-03-04T04:25:55;51.47;;;32.83;;
6113;SDS011;3087;48.392;10.836;2023-03-04T04:28:21;58.70;;;32.53;;
6113;SDS011;3087;48.392;10.836;2023-03-04T04:30:47;50.50;;;31.70;;
6113;SDS011;3087;48.392;10.836;2023-03-04T04:33:13;50.33;;;32.60;;
6113;SDS011;3087;48.392;10.836;2023-03-04T04:35:39;50.43;;;33.00;;
6113;SDS011;3087;48.392;10.836;2023-03-04T04:38:05;48.00;;;30.10;;
6113;SDS011;3087;48.392;10.836;2023-03-04T04:40:32;46.63;;;31.50;;
6113;SDS011;3087;48.392;10.836;2023-03-04T04:42:57;50.30;;;30.67;;
6113;SDS011;3087;48.392;10.836;2023-03-04T04:45:23;51.90;;;32.60;;
6113;SDS011;3087;48.392;10.836;2023-03-04T04:47:50;53.10;;;33.23;;
6113;SDS011;3087;48.392;10.836;2023-03-04T04:50:16;49.70;;;31.60;;
6113;SDS011;3087;48.392;10.836;2023-03-04T04:52:41;56.43;;;33.77;;
6113;SDS011;3087;48.392;10.836;2023-03-04T04:55:07;58.27;;;34.77;;
6113;SDS011;3087;48.392;10.836;2023-03-04T04:57:33;51.93;;;31.87;;
6113;SDS011;3087;48.392;10.836;2023-03-04T04:59:59;54.50;;;32.60;;
6113;SDS011;3087;48.392;10.836;2023-03-04T05:02:25;49.40;;;31.80;;
6113;SDS011;3087;48.392;10.836;2023-03-04T05:04:50;47.53;;;30.77;;
6113;SDS011;3087;48.392;10.836;2023-03-04T05:07:16;50.90;;;31.57;;
6113;SDS011;3087;48.392;10.836;2023-03-04T05:09:42;54.80;;;33.13;;
6113;SDS011;3087;48.392;10.836;2023-03-04T05:12:08;52.17;;;33.90;;
6113;SDS011;3087;48.392;10.836;2023-03-04T05:14:33;48.80;;;31.17;;
6113;SDS011;3087;48.392;10.836;2023-03-04T05:16:59;47.10;;;32.20;;
6113;SDS011;3087;48.392;10.836;2023-03-04T05:19:24;47.63;;;31.83;;
6113;SDS011;3087;48.392;10.836;2023-03-04T05:21:50;47.23;;;29.63;;
6113;SDS011;3087;48.392;10.836;2023-03-04T05:24:16;53.37;;;33.60;;
6113;SDS011;3087;48.392;10.836;2023-03-04T05:26:41;52.37;;;32.43;;
6113;SDS011;3087;48.392;10.836;2023-03-04T05:29:07;52.20;;;32.83;;
6113;SDS011;3087;48.392;10.836;2023-03-04T05:31:32;49.43;;;31.23;;
6113;SDS011;3087;48.392;10.836;2023-03-04T05:33:58;48.67;;;31.17;;
6113;SDS011;3087;48.392;10.836;2023-03-04T05:36:23;49.27;;;32.57;;
6113;SDS011;3087;48.392;10.836;2023-03-04T05:38:49;46.57;;;31.80;;
6113;SDS011;3087;48.392;10.836;2023-03-04T05:41:15;47.90;;;31.33;;
6113;SDS011;3087;48.392;10.836;2023-03-04T05:43:43;48.73;;;32.63;;
6113;SDS011;3087;48.392;10.836;2023-03-04T05:46:12;51.53;;;32.97;;
6113;SDS011;3087;48.392;10.836;2023-03-04T05:48:39;48.27;;;29.53;;
6113;SDS011;3087;48.392;10.836;2023-03-04T05:51:05;48.70;;;31.47;;
6113;SDS011;3087;48.392;10.836;2023-03-04T05:53:31;50.30;;;31.20;;
6113;SDS011;3087;48.392;10.836;2023-03-04T05:56:11;48.63;;;31.07;;
6113;SDS011;3087;48.392;10.836;2023-03-04T05:58:39;51.70;;;31.47;;
6113;SDS011;3087;48.392;10.836;2023-03-04T06:01:05;51.57;;;32.53;;
6113;SDS011;3087;48.392;10.836;2023-03-04T06:03:31;48.07;;;31.13;;
6113;SDS011;3087;48.392;10.836;2023-03-04T06:05:56;52.73;;;32.57;;
6113;SDS011;3087;48.392;10.836;2023-03-04T06:08:22;47.17;;;30.03;;
6113;SDS011;3087;48.392;10.836;2023-03-04T06:10:50;49.93;;;31.07;;
6113;SDS011;3087;48.392;10.836;2023-03-04T06:13:17;50.93;;;32.17;;
6113;SDS011;3087;48.392;10.836;2023-03-04T06:15:43;45.70;;;31.07;;
6113;SDS011;3087;48.392;10.836;2023-03-04T06:18:09;53.97;;;32.17;;
6113;SDS011;3087;48.392;10.836;2023-03-04T06:20:35;55.93;;;32.73;;
6113;SDS011;3087;48.392;10.836;2023-03-04T06:23:01;47.60;;;30.97;;
6113;SDS011;3087;48.392;10.836;2023-03-04T06:25:27;48.20;;;30.60;;
6113;SDS011;3087;48.392;10.836;2023-03-04T06:27:53;50.17;;;32.50;;
6113;SDS011;3087;48.392;10.836;2023-03-04T06:30:19;50.77;;;31.77;;
6113;SDS011;3087;48.392;10.836;2023-03-04T06:32:45;51.63;;;31.63;;
6113;SDS011;3087;48.392;10.836;2023-03-04T06:35:12;53.33;;;33.23;;
6113;SDS011;3087;48.392;10.836;2023-03-04T06:37:38;50.50;;;31.83;;
6113;SDS011;3087;48.392;10.836;2023-03-04T06:40:04;49.53;;;31.03;;
6113;SDS011;3087;48.392;10.836;2023-03-04T06:42:31;47.67;;;30.70;;
6113;SDS011;3087;48.392;10.836;2023-03-04T06:44:58;53.33;;;32.50;;
6113;SDS011;3087;48.392;10.836;2023-03-04T06:47:23;52.20;;;33.53;;
6113;SDS011;3087;48.392;10.836;2023-03-04T06:49:49;52.07;;;33.37;;
6113;SDS011;3087;48.392;10.836;2023-03-04T06:52:14;50.13;;;32.53;;
6113;SDS011;3087;48.392;10.836;2023-03-04T06:54:40;49.73;;;32.20;;
6113;SDS011;3087;48.392;10.836;2023-03-04T06:57:06;53.77;;;32.57;;
6113;SDS011;3087;48.392;10.836;2023-03-04T06:59:32;49.47;;;32.77;;
6113;SDS011;3087;48.392;10.836;2023-03-04T07:01:57;50.23;;;31.37;;
6113;SDS011;3087;48.392;10.836;2023-03-04T07:04:23;52.73;;;33.80;;
6113;SDS011;3087;48.392;10.836;2023-03-04T07:06:49;53.57;;;33.40;;
6113;SDS011;3087;48.392;10.836;2023-03-04T07:09:15;53.57;;;32.43;;
6113;SDS011;3087;48.392;10.836;2023-03-04T07:11:42;50.97;;;33.47;;
6113;SDS011;3087;48.392;10.836;2023-03-04T07:14:08;51.57;;;32.17;;
6113;SDS011;3087;48.392;10.836;2023-03-04T07:16:34;51.33;;;32.73;;
6113;SDS011;3087;48.392;10.836;2023-03-04T07:18:59;51.97;;;33.07;;
6113;SDS011;3087;48.392;10.836;2023-03-04T07:21:25;48.77;;;32.60;;
6113;SDS011;3087;48.392;10.836;2023-03-04T07:23:51;55.33;;;33.33;;
6113;SDS011;3087;48.392;10.836;2023-03-04T07:26:17;52.27;;;32.80;;
6113;SDS011;3087;48.392;10.836;2023-03-04T07:28:42;50.73;;;32.67;;
6113;SDS011;3087;48.392;10.836;2023-03-04T07:31:19;51.70;;;34.23;;
6113;SDS011;3087;48.392;10.836;2023-03-04T07:33:47;49.67;;;32.47;;
6113;SDS011;3087;48.392;10.836;2023-03-04T07:36:13;52.77;;;32.90;;
6113;SDS011;3087;48.392;10.836;2023-03-04T07:38:43;52.10;;;32.70;;
6113;SDS011;3087;48.392;10.836;2023-03-04T07:41:13;53.43;;;34.30;;
6113;SDS011;3087;48.392;10.836;2023-03-04T07:43:41;49.60;;;32.93;;
6113;SDS011;3087;48.392;10.836;2023-03-04T07:46:07;51.27;;;33.23;;
6113;SDS011;3087;48.392;10.836;2023-03-04T07:48:34;47.63;;;32.17;;
6113;SDS011;3087;48.392;10.836;2023-03-04T07:51:07;53.50;;;32.83;;
6113;SDS011;3087;48.392;10.836;2023-03-04T07:53:36;51.37;;;34.30;;
6113;SDS011;3087;48.392;10.836;2023-03-04T07:56:03;49.27;;;32.10;;
6113;SDS011;3087;48.392;10.836;2023-03-04T07:58:30;45.83;;;30.40;;
6113;SDS011;3087;48.392;10.836;2023-03-04T08:00:56;47.83;;;31.83;;
6113;SDS011;3087;48.392;10.836;2023-03-04T08:03:22;46.80;;;31.60;;
6113;SDS011;3087;48.392;10.836;2023-03-04T08:05:48;46.43;;;32.27;;
6113;SDS011;3087;48.392;10.836;2023-03-04T08:08:14;47.00;;;31.47;;
6113;SDS011;3087;48.392;10.836;2023-03-04T08:10:39;50.67;;;31.03;;
6113;SDS011;3087;48.392;10.836;2023-03-04T08:13:06;45.87;;;31.67;;
6113;SDS011;3087;48.392;10.836;2023-03-04T08:15:32;48.70;;;31.50;;
6113;SDS011;3087;48.392;10.836;2023-03-04T08:17:59;48.00;;;32.00;;
6113;SDS011;3087;48.392;10.836;2023-03-04T08:20:26;50.60;;;33.63;;
6113;SDS011;3087;48.392;10.836;2023-03-04T08:22:51;44.00;;;28.97;;
6113;SDS011;3087;48.392;10.836;2023-03-04T08:25:17;46.33;;;30.33;;
6113;SDS011;3087;48.392;10.836;2023-03-04T08:27:43;45.97;;;29.80;;
6113;SDS011;3087;48.392;10.836;2023-03-04T08:30:09;45.57;;;29.17;;
6113;SDS011;3087;48.392;10.836;2023-03-04T08:32:35;46.90;;;30.27;;
6113;SDS011;3087;48.392;10.836;2023-03-04T08:35:01;44.87;;;29.83;;
6113;SDS011;3087;48.392;10.836;2023-03-04T08:37:28;47.47;;;30.87;;
6113;SDS011;3087;48.392;10.836;2023-03-04T08:39:53;43.53;;;29.87;;
6113;SDS011;3087;48.392;10.836;2023-03-04T08:42:19;43.87;;;28.77;;
6113;SDS011;3087;48.392;10.836;2023-03-04T08:44:45;42.03;;;28.07;;
6113;SDS011;3087;48.392;10.836;2023-03-04T08:47:11;41.60;;;27.17;;
6113;SDS011;3087;48.392;10.836;2023-03-04T08:49:37;39.00;;;24.57;;
6113;SDS011;3087;48.392;10.836;2023-03-04T08:52:02;36.10;;;24.30;;
6113;SDS011;3087;48.392;10.836;2023-03-04T08:54:28;35.33;;;22.13;;
6113;SDS011;3087;48.392;10.836;2023-03-04T08:56:54;35.83;;;22.70;;
6113;SDS011;3087;48.392;10.836;2023-03-04T08:59:19;29.77;;;20.73;;
6113;SDS011;3087;48.392;10.836;2023-03-04T09:01:45;34.93;;;21.57;;
6113;SDS011;3087;48.392;10.836;2023-03-04T09:04:11;31.77;;;21.10;;
6113;SDS011;3087;48.392;10.836;2023-03-04T09:06:37;31.50;;;21.83;;
6113;SDS011;3087;48.392;10.836;2023-03-04T09:09:03;32.23;;;21.53;;
6113;SDS011;3087;48.392;10.836;2023-03-04T09:11:29;29.67;;;20.47;;
6113;SDS011;3087;48.392;10.836;2023-03-04T09:13:55;29.80;;;19.20;;
6113;SDS011;3087;48.392;10.836;2023-03-04T09:16:21;27.87;;;18.00;;
6113;SDS011;3087;48.392;10.836;2023-03-04T09:18:47;28.80;;;19.03;;
6113;SDS011;3087;48.392;10.836;2023-03-04T09:21:13;30.90;;;17.93;;
6113;SDS011;3087;48.392;10.836;2023-03-04T09:23:39;32.23;;;20.17;;
6113;SDS011;3087;48.392;10.836;2023-03-04T09:26:15;29.57;;;20.00;;
6113;SDS011;3087;48.392;10.836;2023-03-04T09:28:49;30.80;;;18.33;;
6113;SDS011;3087;48.392;10.836;2023-03-04T09:31:19;28.77;;;18.37;;
6113;SDS011;3087;48.392;10.836;2023-03-04T09:33:45;28.87;;;19.13;;
6113;SDS011;3087;48.392;10.836;2023-03-04T09:36:12;26.93;;;17.63;;
6113;SDS011;3087;48.392;10.836;2023-03-04T09:38:39;30.13;;;18.97;;
6113;SDS011;3087;48.392;10.836;2023-03-04T09:41:11;29.50;;;18.37;;
6113;SDS011;3087;48.392;10.836;2023-03-04T09:44:06;27.37;;;17.90;;
6113;SDS011;3087;48.392;10.836;2023-03-04T09:46:40;28.40;;;19.10;;
6113;SDS011;3087;48.392;10.836;2023-03-04T09:49:11;27.40;;;18.90;;
6113;SDS011;3087;48.392;10.836;2023-03-04T09:51:43;30.70;;;18.37;;
6113;SDS011;3087;48.392;10.836;2023-03-04T09:57:09;29.97;;;21.03;;
6113;SDS011;3087;48.392;10.836;2023-03-04T09:59:47;32.97;;;19.20;;
6113;SDS011;3087;48.392;10.836;2023-03-04T10:08:14;25.63;;;17.23;;
6113;SDS011;3087;48.392;10.836;2023-03-04T10:10:51;30.67;;;18.43;;
6113;SDS011;3087;48.392;10.836;2023-03-04T10:13:33;25.07;;;18.77;;
6113;SDS011;3087;48.392;10.836;2023-03-04T10:16:04;27.33;;;17.70;;
6113;SDS011;3087;48.392;10.836;2023-03-04T10:18:37;25.87;;;17.73;;
6113;SDS011;3087;48.392;10.836;2023-03-04T10:24:08;27.70;;;16.97;;
6113;SDS011;3087;48.392;10.836;2023-03-04T10:26:37;24.23;;;16.83;;
6113;SDS011;3087;48.392;10.836;2023-03-04T10:29:03;26.10;;;17.43;;
6113;SDS011;3087;48.392;10.836;2023-03-04T10:31:33;24.15;;;17.40;;
6113;SDS011;3087;48.392;10.836;2023-03-04T10:34:01;26.73;;;18.08;;
6113;SDS011;3087;48.392;10.836;2023-03-04T10:41:24;23.52;;;15.75;;
6113;SDS011;3087;48.392;10.836;2023-03-04T10:46:28;22.75;;;16.17;;
6113;SDS011;3087;48.392;10.836;2023-03-04T10:48:55;23.80;;;17.45;;
6113;SDS011;3087;48.392;10.836;2023-03-04T10:51:22;24.25;;;16.73;;
6113;SDS011;3087;48.392;10.836;2023-03-04T10:54:09;24.27;;;17.02;;
6113;SDS011;3087;48.392;10.836;2023-03-04T10:56:52;22.20;;;17.13;;
6113;SDS011;3087;48.392;10.836;2023-03-04T10:59:42;22.55;;;15.68;;
6113;SDS011;3087;48.392;10.836;2023-03-04T11:02:21;21.55;;;16.42;;
6113;SDS011;3087;48.392;10.836;2023-03-04T11:07:30;24.23;;;16.25;;
6113;SDS011;3087;48.392;10.836;2023-03-04T11:12:59;22.27;;;16.58;;
6113;SDS011;3087;48.392;10.836;2023-03-04T11:15:28;22.98;;;15.90;;
6113;SDS011;3087;48.392;10.836;2023-03-04T11:18:02;20.60;;;14.57;;
6113;SDS011;3087;48.392;10.836;2023-03-04T11:23:50;21.65;;;15.88;;
6113;SDS011;3087;48.392;10.836;2023-03-04T11:26:04;24.88;;;16.30;;
6113;SDS011;3087;48.392;10.836;2023-03-04T11:39:49;21.23;;;16.48;;
6113;SDS011;3087;48.392;10.836;2023-03-04T11:42:32;25.38;;;16.30;;
6113;SDS011;3087;48.392;10.836;2023-03-04T11:45:57;24.45;;;16.90;;
6113;SDS011;3087;48.392;10.836;2023-03-04T11:50:34;23.55;;;16.38;;
6113;SDS011;3087;48.392;10.836;2023-03-04T11:53:35;22.30;;;16.75;;
6113;SDS011;3087;48.392;10.836;2023-03-04T11:58:46;19.60;;;15.55;;
6113;SDS011;3087;48.392;10.836;2023-03-04T12:01:27;19.77;;;14.88;;
6113;SDS011;3087;48.392;10.836;2023-03-04T12:04:27;21.30;;;14.93;;
6113;SDS011;3087;48.392;10.836;2023-03-04T12:12:46;16.55;;;13.60;;
6113;SDS011;3087;48.392;10.836;2023-03-04T12:18:04;20.73;;;15.65;;
6113;SDS011;3087;48.392;10.836;2023-03-04T12:31:32;18.75;;;14.00;;
6113;SDS011;3087;48.392;10.836;2023-03-04T12:39:39;19.73;;;15.15;;
6113;SDS011;3087;48.392;10.836;2023-03-04T12:44:46;18.83;;;14.35;;
6113;SDS011;3087;48.392;10.836;2023-03-04T12:49:54;17.27;;;13.10;;
6113;SDS011;3087;48.392;10.836;2023-03-04T12:55:38;18.08;;;14.23;;
6113;SDS011;3087;48.392;10.836;2023-03-04T12:58:05;18.08;;;14.05;;
6113;SDS011;3087;48.392;10.836;2023-03-04T13:08:50;18.85;;;13.98;;
6113;SDS011;3087;48.392;10.836;2023-03-04T13:11:32;17.65;;;14.15;;
6113;SDS011;3087;48.392;10.836;2023-03-04T13:16:45;18.95;;;14.43;;
6113;SDS011;3087;48.392;10.836;2023-03-04T13:24:54;17.90;;;14.20;;
6113;SDS011;3087;48.392;10.836;2023-03-04T13:27:43;19.73;;;13.75;;
6113;SDS011;3087;48.392;10.836;2023-03-04T13:43:43;17.92;;;14.15;;
6113;SDS011;3087;48.392;10.836;2023-03-04T14:04:21;17.83;;;14.38;;
6113;SDS011;3087;48.392;10.836;2023-03-04T14:06:51;15.60;;;12.55;;
6113;SDS011;3087;48.392;10.836;2023-03-04T14:09:19;19.38;;;14.40;;
6113;SDS011;3087;48.392;10.836;2023-03-04T14:11:48;18.90;;;14.18;;
6113;SDS011;3087;48.392;10.836;2023-03-04T14:14:19;15.27;;;13.27;;
6113;SDS011;3087;48.392;10.836;2023-03-04T14:16:50;17.42;;;13.23;;
6113;SDS011;3087;48.392;10.836;2023-03-04T14:19:24;21.67;;;14.95;;
6113;SDS011;3087;48.392;10.836;2023-03-04T14:30:52;17.73;;;13.55;;
6113;SDS011;3087;48.392;10.836;2023-03-04T14:33:21;20.85;;;15.40;;
6113;SDS011;3087;48.392;10.836;2023-03-04T14:35:55;17.40;;;13.25;;
6113;SDS011;3087;48.392;10.836;2023-03-04T14:38:31;18.50;;;13.38;;
6113;SDS011;3087;48.392;10.836;2023-03-04T14:41:00;19.67;;;13.05;;
6113;SDS011;3087;48.392;10.836;2023-03-04T14:43:34;19.50;;;13.13;;
6113;SDS011;3087;48.392;10.836;2023-03-04T14:46:04;18.97;;;13.30;;
6113;SDS011;3087;48.392;10.836;2023-03-04T14:48:34;17.40;;;13.43;;
6113;SDS011;3087;48.392;10.836;2023-03-04T14:51:01;19.50;;;14.07;;
6113;SDS011;3087;48.392;10.836;2023-03-04T14:53:28;18.13;;;13.50;;
6113;SDS011;3087;48.392;10.836;2023-03-04T14:56:02;20.80;;;14.07;;
6113;SDS011;3087;48.392;10.836;2023-03-04T14:58:37;19.70;;;13.53;;
6113;SDS011;3087;48.392;10.836;2023-03-04T15:01:15;18.40;;;14.20;;
6113;SDS011;3087;48.392;10.836;2023-03-04T15:06:24;21.17;;;13.87;;
6113;SDS011;3087;48.392;10.836;2023-03-04T15:09:04;31.77;;;22.80;;
6113;SDS011;3087;48.392;10.836;2023-03-04T15:12:20;23.30;;;15.83;;
6113;SDS011;3087;48.392;10.836;2023-03-04T15:17:35;22.17;;;14.63;;
6113;SDS011;3087;48.392;10.836;2023-03-04T15:23:13;20.97;;;14.43;;
6113;SDS011;3087;48.392;10.836;2023-03-04T15:25:24;20.60;;;14.57;;
6113;SDS011;3087;48.392;10.836;2023-03-04T15:27:50;22.80;;;15.67;;
6113;SDS011;3087;48.392;10.836;2023-03-04T15:32:45;21.43;;;13.93;;
6113;SDS011;3087;48.392;10.836;2023-03-04T15:35:11;23.70;;;14.53;;
6113;SDS011;3087;48.392;10.836;2023-03-04T15:37:38;19.53;;;13.50;;
6113;SDS011;3087;48.392;10.836;2023-03-04T15:40:05;21.37;;;15.10;;
6113;SDS011;3087;48.392;10.836;2023-03-04T15:42:52;22.07;;;15.40;;
6113;SDS011;3087;48.392;10.836;2023-03-04T15:45:20;20.33;;;14.77;;
6113;SDS011;3087;48.392;10.836;2023-03-04T15:47:48;23.97;;;15.57;;
6113;SDS011;3087;48.392;10.836;2023-03-04T15:50:15;21.33;;;14.83;;
6113;SDS011;3087;48.392;10.836;2023-03-04T15:52:42;20.17;;;14.23;;
6113;SDS011;3087;48.392;10.836;2023-03-04T15:55:17;20.97;;;14.70;;
6113;SDS011;3087;48.392;10.836;2023-03-04T15:57:46;20.70;;;14.13;;
6113;SDS011;3087;48.392;10.836;2023-03-04T16:00:14;23.90;;;15.17;;
6113;SDS011;3087;48.392;10.836;2023-03-04T16:02:41;21.13;;;15.13;;
6113;SDS011;3087;48.392;10.836;2023-03-04T16:05:07;24.10;;;16.17;;
6113;SDS011;3087;48.392;10.836;2023-03-04T16:07:33;22.80;;;14.90;;
6113;SDS011;3087;48.392;10.836;2023-03-04T16:10:00;22.10;;;15.33;;
6113;SDS011;3087;48.392;10.836;2023-03-04T16:12:32;22.80;;;15.37;;
6113;SDS011;3087;48.392;10.836;2023-03-04T16:14:58;22.73;;;15.53;;
6113;SDS011;3087;48.392;10.836;2023-03-04T16:17:23;22.03;;;15.73;;
6113;SDS011;3087;48.392;10.836;2023-03-04T16:19:49;22.53;;;15.83;;
6113;SDS011;3087;48.392;10.836;2023-03-04T16:22:17;22.33;;;15.30;;
6113;SDS011;3087;48.392;10.836;2023-03-04T16:24:48;24.30;;;15.30;;
6113;SDS011;3087;48.392;10.836;2023-03-04T16:27:15;23.40;;;14.90;;
6113;SDS011;3087;48.392;10.836;2023-03-04T16:29:43;20.93;;;14.23;;
6113;SDS011;3087;48.392;10.836;2023-03-04T16:32:09;22.97;;;15.97;;
6113;SDS011;3087;48.392;10.836;2023-03-04T16:34:35;21.67;;;15.83;;
6113;SDS011;3087;48.392;10.836;2023-03-04T16:37:02;25.77;;;16.20;;
6113;SDS011;3087;48.392;10.836;2023-03-04T16:39:37;21.40;;;14.13;;
6113;SDS011;3087;48.392;10.836;2023-03-04T16:42:02;23.47;;;14.67;;
6113;SDS011;3087;48.392;10.836;2023-03-04T16:44:28;23.07;;;15.07;;
6113;SDS011;3087;48.392;10.836;2023-03-04T16:46:54;20.80;;;15.10;;
6113;SDS011;3087;48.392;10.836;2023-03-04T16:49:19;20.40;;;14.07;;
6113;SDS011;3087;48.392;10.836;2023-03-04T16:51:46;25.13;;;14.63;;
6113;SDS011;3087;48.392;10.836;2023-03-04T16:54:25;21.57;;;15.83;;
6113;SDS011;3087;48.392;10.836;2023-03-04T16:56:54;20.80;;;15.10;;
6113;SDS011;3087;48.392;10.836;2023-03-04T16:59:20;22.30;;;15.90;;
6113;SDS011;3087;48.392;10.836;2023-03-04T17:01:46;21.50;;;15.97;;
6113;SDS011;3087;48.392;10.836;2023-03-04T17:04:13;21.73;;;15.47;;
6113;SDS011;3087;48.392;10.836;2023-03-04T17:06:39;23.53;;;16.20;;
6113;SDS011;3087;48.392;10.836;2023-03-04T17:09:05;20.43;;;16.10;;
6113;SDS011;3087;48.392;10.836;2023-03-04T17:11:31;20.27;;;14.07;;